Wagner, Minnesota
Current Conditions -  °F | °C
As of 9:43 AM on Thursday 23 Oct 2014 (Local Time) from K04W Reporting Station
Moderate Fog Moderate Fog  
Wind Chill: 50°   Ceiling: 300
Heat Index: 50°   Visibility: 0.5mi
Dew Point: 50°   Wind: 0mph
Humidity: 100%   Direction: NA
Pressure: 29.99"   Gusts: NA
Location:  46.2114°N, 92.9743°W
Report Text: K04W 231443Z AUTO 00000KT 1/2SM FG OVC003 10/10 A2999 RMK AO2
Loading
Personal Weather Stations






























Interactive Weather Map
Tropical Storm Tracking
New forecast layout! Learn more

10-Day Weather Forecast

Advertisements
Track Severe Weather on mobile